sensor_id;sensor_type;location;lat;lon;timestamp;P1;durP1;ratioP1;P2;durP2;ratioP2
46230;SDS011;31949;51.404;-0.038;2024-02-16T00:00:11;5.05;;;3.22;;
46230;SDS011;31949;51.404;-0.038;2024-02-16T00:02:39;3.25;;;2.80;;
46230;SDS011;31949;51.404;-0.038;2024-02-16T00:05:10;4.40;;;3.17;;
46230;SDS011;31949;51.404;-0.038;2024-02-16T00:07:39;4.43;;;3.03;;
46230;SDS011;31949;51.404;-0.038;2024-02-16T00:10:06;4.05;;;2.90;;
46230;SDS011;31949;51.404;-0.038;2024-02-16T00:12:35;4.18;;;2.65;;
46230;SDS011;31949;51.404;-0.038;2024-02-16T00:15:03;6.13;;;2.90;;
46230;SDS011;31949;51.404;-0.038;2024-02-16T00:17:31;4.50;;;3.38;;
46230;SDS011;31949;51.404;-0.038;2024-02-16T00:19:58;2.75;;;2.53;;
46230;SDS011;31949;51.404;-0.038;2024-02-16T00:22:26;3.40;;;2.72;;
46230;SDS011;31949;51.404;-0.038;2024-02-16T00:24:53;5.53;;;3.53;;
46230;SDS011;31949;51.404;-0.038;2024-02-16T00:27:20;6.75;;;3.20;;
46230;SDS011;31949;51.404;-0.038;2024-02-16T00:29:48;3.35;;;2.88;;
46230;SDS011;31949;51.404;-0.038;2024-02-16T00:32:15;5.13;;;2.70;;
46230;SDS011;31949;51.404;-0.038;2024-02-16T00:34:43;4.70;;;3.08;;
46230;SDS011;31949;51.404;-0.038;2024-02-16T00:37:10;4.35;;;3.28;;
46230;SDS011;31949;51.404;-0.038;2024-02-16T00:39:39;3.75;;;3.20;;
46230;SDS011;31949;51.404;-0.038;2024-02-16T00:42:09;9.90;;;4.15;;
46230;SDS011;31949;51.404;-0.038;2024-02-16T00:44:37;5.40;;;2.95;;
46230;SDS011;31949;51.404;-0.038;2024-02-16T00:47:05;6.32;;;3.95;;
46230;SDS011;31949;51.404;-0.038;2024-02-16T00:49:33;5.25;;;3.35;;
46230;SDS011;31949;51.404;-0.038;2024-02-16T00:52:00;4.57;;;3.03;;
46230;SDS011;31949;51.404;-0.038;2024-02-16T00:54:29;6.22;;;3.58;;
46230;SDS011;31949;51.404;-0.038;2024-02-16T00:56:56;4.53;;;3.90;;
46230;SDS011;31949;51.404;-0.038;2024-02-16T00:59:29;5.15;;;3.17;;
46230;SDS011;31949;51.404;-0.038;2024-02-16T01:01:56;5.63;;;3.50;;
46230;SDS011;31949;51.404;-0.038;2024-02-16T01:04:24;5.15;;;3.13;;
46230;SDS011;31949;51.404;-0.038;2024-02-16T01:06:51;5.85;;;3.05;;
46230;SDS011;31949;51.404;-0.038;2024-02-16T01:09:18;4.72;;;4.03;;
46230;SDS011;31949;51.404;-0.038;2024-02-16T01:11:46;4.25;;;3.63;;
46230;SDS011;31949;51.404;-0.038;2024-02-16T01:14:13;5.00;;;4.00;;
46230;SDS011;31949;51.404;-0.038;2024-02-16T01:16:41;7.80;;;4.80;;
46230;SDS011;31949;51.404;-0.038;2024-02-16T01:19:08;6.93;;;4.30;;
46230;SDS011;31949;51.404;-0.038;2024-02-16T01:21:36;8.55;;;4.25;;
46230;SDS011;31949;51.404;-0.038;2024-02-16T01:24:04;7.57;;;4.28;;
46230;SDS011;31949;51.404;-0.038;2024-02-16T01:26:35;4.97;;;4.18;;
46230;SDS011;31949;51.404;-0.038;2024-02-16T01:29:02;4.75;;;4.03;;
46230;SDS011;31949;51.404;-0.038;2024-02-16T01:31:30;6.35;;;3.92;;
46230;SDS011;31949;51.404;-0.038;2024-02-16T01:33:57;7.20;;;4.32;;
46230;SDS011;31949;51.404;-0.038;2024-02-16T01:36:24;8.23;;;4.55;;
46230;SDS011;31949;51.404;-0.038;2024-02-16T01:38:52;5.45;;;4.22;;
46230;SDS011;31949;51.404;-0.038;2024-02-16T01:41:19;6.20;;;3.95;;
46230;SDS011;31949;51.404;-0.038;2024-02-16T01:43:47;6.47;;;4.07;;
46230;SDS011;31949;51.404;-0.038;2024-02-16T01:46:14;7.10;;;4.72;;
46230;SDS011;31949;51.404;-0.038;2024-02-16T01:48:41;6.18;;;4.63;;
46230;SDS011;31949;51.404;-0.038;2024-02-16T01:51:09;7.93;;;4.88;;
46230;SDS011;31949;51.404;-0.038;2024-02-16T01:53:37;9.45;;;5.00;;
46230;SDS011;31949;51.404;-0.038;2024-02-16T01:56:06;5.63;;;4.63;;
46230;SDS011;31949;51.404;-0.038;2024-02-16T01:58:34;9.40;;;4.68;;
46230;SDS011;31949;51.404;-0.038;2024-02-16T02:01:01;8.20;;;4.45;;
46230;SDS011;31949;51.404;-0.038;2024-02-16T02:03:28;8.35;;;5.40;;
46230;SDS011;31949;51.404;-0.038;2024-02-16T02:05:56;6.28;;;4.00;;
46230;SDS011;31949;51.404;-0.038;2024-02-16T02:08:24;4.57;;;3.78;;
46230;SDS011;31949;51.404;-0.038;2024-02-16T02:10:53;6.10;;;4.82;;
46230;SDS011;31949;51.404;-0.038;2024-02-16T02:13:20;7.68;;;4.60;;
46230;SDS011;31949;51.404;-0.038;2024-02-16T02:15:51;11.07;;;5.72;;
46230;SDS011;31949;51.404;-0.038;2024-02-16T02:18:20;9.20;;;5.13;;
46230;SDS011;31949;51.404;-0.038;2024-02-16T02:20:47;7.55;;;4.47;;
46230;SDS011;31949;51.404;-0.038;2024-02-16T02:23:15;6.60;;;5.05;;
46230;SDS011;31949;51.404;-0.038;2024-02-16T02:25:42;11.25;;;6.18;;
46230;SDS011;31949;51.404;-0.038;2024-02-16T02:28:09;12.93;;;5.13;;
46230;SDS011;31949;51.404;-0.038;2024-02-16T02:30:36;9.82;;;5.35;;
46230;SDS011;31949;51.404;-0.038;2024-02-16T02:33:04;7.05;;;5.85;;
46230;SDS011;31949;51.404;-0.038;2024-02-16T02:35:32;7.20;;;5.43;;
46230;SDS011;31949;51.404;-0.038;2024-02-16T02:37:59;8.63;;;5.07;;
46230;SDS011;31949;51.404;-0.038;2024-02-16T02:40:27;9.38;;;6.00;;
46230;SDS011;31949;51.404;-0.038;2024-02-16T02:42:54;8.35;;;5.70;;
46230;SDS011;31949;51.404;-0.038;2024-02-16T02:45:21;6.03;;;4.97;;
46230;SDS011;31949;51.404;-0.038;2024-02-16T02:47:50;7.95;;;5.65;;
46230;SDS011;31949;51.404;-0.038;2024-02-16T02:50:18;6.15;;;5.53;;
46230;SDS011;31949;51.404;-0.038;2024-02-16T02:52:46;11.35;;;6.15;;
46230;SDS011;31949;51.404;-0.038;2024-02-16T02:55:13;6.15;;;5.55;;
46230;SDS011;31949;51.404;-0.038;2024-02-16T02:57:40;7.85;;;5.60;;
46230;SDS011;31949;51.404;-0.038;2024-02-16T03:00:08;7.10;;;5.68;;
46230;SDS011;31949;51.404;-0.038;2024-02-16T03:02:42;7.43;;;5.60;;
46230;SDS011;31949;51.404;-0.038;2024-02-16T03:05:10;8.82;;;6.72;;
46230;SDS011;31949;51.404;-0.038;2024-02-16T03:07:38;7.50;;;5.45;;
46230;SDS011;31949;51.404;-0.038;2024-02-16T03:10:05;8.25;;;5.03;;
46230;SDS011;31949;51.404;-0.038;2024-02-16T03:12:36;7.65;;;5.65;;
46230;SDS011;31949;51.404;-0.038;2024-02-16T03:15:03;7.38;;;4.95;;
46230;SDS011;31949;51.404;-0.038;2024-02-16T03:17:31;10.55;;;6.00;;
46230;SDS011;31949;51.404;-0.038;2024-02-16T03:19:58;7.25;;;5.28;;
46230;SDS011;31949;51.404;-0.038;2024-02-16T03:22:25;7.57;;;4.82;;
46230;SDS011;31949;51.404;-0.038;2024-02-16T03:24:52;7.15;;;5.60;;
46230;SDS011;31949;51.404;-0.038;2024-02-16T03:27:20;9.30;;;6.03;;
46230;SDS011;31949;51.404;-0.038;2024-02-16T03:29:47;7.68;;;5.10;;
46230;SDS011;31949;51.404;-0.038;2024-02-16T03:32:14;7.05;;;5.15;;
46230;SDS011;31949;51.404;-0.038;2024-02-16T03:34:41;6.22;;;5.15;;
46230;SDS011;31949;51.404;-0.038;2024-02-16T03:37:09;8.65;;;5.60;;
46230;SDS011;31949;51.404;-0.038;2024-02-16T03:39:36;8.05;;;5.65;;
46230;SDS011;31949;51.404;-0.038;2024-02-16T03:42:04;7.20;;;5.65;;
46230;SDS011;31949;51.404;-0.038;2024-02-16T03:44:32;7.38;;;4.88;;
46230;SDS011;31949;51.404;-0.038;2024-02-16T03:46:59;5.30;;;4.30;;
46230;SDS011;31949;51.404;-0.038;2024-02-16T03:49:26;8.57;;;4.75;;
46230;SDS011;31949;51.404;-0.038;2024-02-16T03:51:54;4.57;;;4.10;;
46230;SDS011;31949;51.404;-0.038;2024-02-16T03:54:21;9.40;;;5.85;;
46230;SDS011;31949;51.404;-0.038;2024-02-16T03:56:52;8.77;;;5.28;;
46230;SDS011;31949;51.404;-0.038;2024-02-16T03:59:22;6.43;;;5.25;;
46230;SDS011;31949;51.404;-0.038;2024-02-16T04:01:51;5.80;;;4.53;;
46230;SDS011;31949;51.404;-0.038;2024-02-16T04:04:19;7.95;;;5.35;;
46230;SDS011;31949;51.404;-0.038;2024-02-16T04:06:47;7.60;;;6.13;;
46230;SDS011;31949;51.404;-0.038;2024-02-16T04:09:15;6.00;;;4.18;;
46230;SDS011;31949;51.404;-0.038;2024-02-16T04:11:42;5.28;;;4.38;;
46230;SDS011;31949;51.404;-0.038;2024-02-16T04:14:11;8.88;;;4.75;;
46230;SDS011;31949;51.404;-0.038;2024-02-16T04:16:38;5.43;;;4.60;;
46230;SDS011;31949;51.404;-0.038;2024-02-16T04:19:05;7.18;;;4.63;;
46230;SDS011;31949;51.404;-0.038;2024-02-16T04:21:34;5.15;;;4.43;;
46230;SDS011;31949;51.404;-0.038;2024-02-16T04:24:01;4.93;;;4.50;;
46230;SDS011;31949;51.404;-0.038;2024-02-16T04:26:28;5.35;;;4.43;;
46230;SDS011;31949;51.404;-0.038;2024-02-16T04:28:56;6.45;;;4.97;;
46230;SDS011;31949;51.404;-0.038;2024-02-16T04:31:23;6.13;;;5.20;;
46230;SDS011;31949;51.404;-0.038;2024-02-16T04:33:50;5.55;;;4.88;;
46230;SDS011;31949;51.404;-0.038;2024-02-16T04:36:18;5.30;;;4.43;;
46230;SDS011;31949;51.404;-0.038;2024-02-16T04:38:45;6.45;;;5.05;;
46230;SDS011;31949;51.404;-0.038;2024-02-16T04:41:13;5.13;;;4.63;;
46230;SDS011;31949;51.404;-0.038;2024-02-16T04:43:40;6.03;;;4.40;;
46230;SDS011;31949;51.404;-0.038;2024-02-16T04:46:12;5.80;;;4.88;;
46230;SDS011;31949;51.404;-0.038;2024-02-16T04:48:42;6.30;;;4.18;;
46230;SDS011;31949;51.404;-0.038;2024-02-16T04:51:10;6.18;;;4.55;;
46230;SDS011;31949;51.404;-0.038;2024-02-16T04:53:38;5.07;;;3.83;;
46230;SDS011;31949;51.404;-0.038;2024-02-16T04:56:05;7.20;;;4.78;;
46230;SDS011;31949;51.404;-0.038;2024-02-16T04:58:32;5.03;;;4.53;;
46230;SDS011;31949;51.404;-0.038;2024-02-16T05:01:00;6.25;;;4.63;;
46230;SDS011;31949;51.404;-0.038;2024-02-16T05:03:27;3.65;;;3.35;;
46230;SDS011;31949;51.404;-0.038;2024-02-16T05:05:54;4.68;;;4.07;;
46230;SDS011;31949;51.404;-0.038;2024-02-16T05:08:22;5.95;;;3.80;;
46230;SDS011;31949;51.404;-0.038;2024-02-16T05:10:49;5.32;;;3.80;;
46230;SDS011;31949;51.404;-0.038;2024-02-16T05:13:16;3.63;;;3.33;;
46230;SDS011;31949;51.404;-0.038;2024-02-16T05:15:44;3.88;;;3.47;;
46230;SDS011;31949;51.404;-0.038;2024-02-16T05:18:11;4.30;;;3.20;;
46230;SDS011;31949;51.404;-0.038;2024-02-16T05:20:40;3.60;;;2.72;;
46230;SDS011;31949;51.404;-0.038;2024-02-16T05:23:07;4.32;;;3.92;;
46230;SDS011;31949;51.404;-0.038;2024-02-16T05:25:34;3.80;;;3.40;;
46230;SDS011;31949;51.404;-0.038;2024-02-16T05:28:01;4.43;;;3.22;;
46230;SDS011;31949;51.404;-0.038;2024-02-16T05:30:29;5.00;;;3.65;;
46230;SDS011;31949;51.404;-0.038;2024-02-16T05:32:56;4.72;;;4.22;;
46230;SDS011;31949;51.404;-0.038;2024-02-16T05:35:26;3.70;;;3.38;;
46230;SDS011;31949;51.404;-0.038;2024-02-16T05:37:55;5.25;;;4.20;;
46230;SDS011;31949;51.404;-0.038;2024-02-16T05:40:22;3.47;;;3.17;;
46230;SDS011;31949;51.404;-0.038;2024-02-16T05:42:57;4.88;;;4.38;;
46230;SDS011;31949;51.404;-0.038;2024-02-16T05:45:25;5.10;;;4.60;;
46230;SDS011;31949;51.404;-0.038;2024-02-16T05:47:55;4.65;;;3.80;;
46230;SDS011;31949;51.404;-0.038;2024-02-16T05:50:22;3.50;;;3.20;;
46230;SDS011;31949;51.404;-0.038;2024-02-16T05:52:50;4.10;;;3.38;;
46230;SDS011;31949;51.404;-0.038;2024-02-16T05:55:18;2.75;;;2.55;;
46230;SDS011;31949;51.404;-0.038;2024-02-16T05:57:45;3.05;;;2.75;;
46230;SDS011;31949;51.404;-0.038;2024-02-16T06:00:14;3.50;;;2.40;;
46230;SDS011;31949;51.404;-0.038;2024-02-16T06:02:42;2.55;;;2.17;;
46230;SDS011;31949;51.404;-0.038;2024-02-16T06:05:10;2.53;;;1.92;;
46230;SDS011;31949;51.404;-0.038;2024-02-16T06:07:38;1.98;;;1.55;;
46230;SDS011;31949;51.404;-0.038;2024-02-16T06:10:06;1.95;;;1.65;;
46230;SDS011;31949;51.404;-0.038;2024-02-16T06:12:38;3.30;;;1.60;;
46230;SDS011;31949;51.404;-0.038;2024-02-16T06:15:06;1.20;;;1.10;;
46230;SDS011;31949;51.404;-0.038;2024-02-16T06:17:36;1.75;;;1.48;;
46230;SDS011;31949;51.404;-0.038;2024-02-16T06:20:04;1.85;;;1.38;;
46230;SDS011;31949;51.404;-0.038;2024-02-16T06:22:32;1.27;;;1.17;;
46230;SDS011;31949;51.404;-0.038;2024-02-16T06:24:59;4.15;;;1.15;;
46230;SDS011;31949;51.404;-0.038;2024-02-16T06:27:27;1.13;;;0.98;;
46230;SDS011;31949;51.404;-0.038;2024-02-16T06:29:54;2.00;;;1.45;;
46230;SDS011;31949;51.404;-0.038;2024-02-16T06:32:23;3.20;;;1.50;;
46230;SDS011;31949;51.404;-0.038;2024-02-16T06:34:52;2.00;;;1.30;;
46230;SDS011;31949;51.404;-0.038;2024-02-16T06:37:20;1.48;;;1.30;;
46230;SDS011;31949;51.404;-0.038;2024-02-16T06:39:47;2.22;;;1.35;;
46230;SDS011;31949;51.404;-0.038;2024-02-16T06:42:14;1.90;;;1.38;;
46230;SDS011;31949;51.404;-0.038;2024-02-16T06:44:41;1.15;;;0.82;;
46230;SDS011;31949;51.404;-0.038;2024-02-16T06:47:09;1.30;;;0.68;;
46230;SDS011;31949;51.404;-0.038;2024-02-16T06:49:36;2.40;;;1.70;;
46230;SDS011;31949;51.404;-0.038;2024-02-16T06:52:03;2.13;;;1.30;;
46230;SDS011;31949;51.404;-0.038;2024-02-16T06:54:31;2.72;;;1.25;;
46230;SDS011;31949;51.404;-0.038;2024-02-16T06:56:58;3.42;;;1.27;;
46230;SDS011;31949;51.404;-0.038;2024-02-16T06:59:26;1.63;;;0.98;;
46230;SDS011;31949;51.404;-0.038;2024-02-16T07:01:53;3.35;;;1.20;;
46230;SDS011;31949;51.404;-0.038;2024-02-16T07:04:20;2.25;;;1.00;;
46230;SDS011;31949;51.404;-0.038;2024-02-16T07:06:47;2.42;;;0.77;;
46230;SDS011;31949;51.404;-0.038;2024-02-16T07:09:15;1.27;;;1.17;;
46230;SDS011;31949;51.404;-0.038;2024-02-16T07:11:42;1.52;;;0.95;;
46230;SDS011;31949;51.404;-0.038;2024-02-16T07:14:16;1.98;;;1.40;;
46230;SDS011;31949;51.404;-0.038;2024-02-16T07:16:44;1.85;;;1.40;;
46230;SDS011;31949;51.404;-0.038;2024-02-16T07:19:12;3.38;;;1.60;;
46230;SDS011;31949;51.404;-0.038;2024-02-16T07:21:39;1.65;;;1.27;;
46230;SDS011;31949;51.404;-0.038;2024-02-16T07:24:07;6.13;;;1.60;;
46230;SDS011;31949;51.404;-0.038;2024-02-16T07:26:35;2.42;;;1.73;;
46230;SDS011;31949;51.404;-0.038;2024-02-16T07:29:03;2.80;;;1.38;;
46230;SDS011;31949;51.404;-0.038;2024-02-16T07:31:31;1.15;;;1.05;;
46230;SDS011;31949;51.404;-0.038;2024-02-16T07:34:01;2.70;;;1.40;;
46230;SDS011;31949;51.404;-0.038;2024-02-16T07:36:28;2.83;;;1.25;;
46230;SDS011;31949;51.404;-0.038;2024-02-16T07:38:56;2.10;;;1.83;;
46230;SDS011;31949;51.404;-0.038;2024-02-16T07:41:23;2.47;;;1.52;;
46230;SDS011;31949;51.404;-0.038;2024-02-16T07:43:50;2.95;;;1.50;;
46230;SDS011;31949;51.404;-0.038;2024-02-16T07:46:17;4.05;;;1.33;;
46230;SDS011;31949;51.404;-0.038;2024-02-16T07:48:45;3.10;;;1.77;;
46230;SDS011;31949;51.404;-0.038;2024-02-16T07:51:12;6.05;;;1.83;;
46230;SDS011;31949;51.404;-0.038;2024-02-16T07:53:40;1.92;;;1.30;;
46230;SDS011;31949;51.404;-0.038;2024-02-16T07:56:08;4.20;;;2.30;;
46230;SDS011;31949;51.404;-0.038;2024-02-16T07:58:36;5.50;;;2.33;;
46230;SDS011;31949;51.404;-0.038;2024-02-16T08:01:03;3.55;;;1.80;;
46230;SDS011;31949;51.404;-0.038;2024-02-16T08:03:31;5.30;;;2.35;;
46230;SDS011;31949;51.404;-0.038;2024-02-16T08:06:00;4.45;;;2.28;;
46230;SDS011;31949;51.404;-0.038;2024-02-16T08:08:27;8.48;;;2.67;;
46230;SDS011;31949;51.404;-0.038;2024-02-16T08:10:55;4.93;;;2.80;;
46230;SDS011;31949;51.404;-0.038;2024-02-16T08:13:23;3.78;;;2.45;;
46230;SDS011;31949;51.404;-0.038;2024-02-16T08:15:50;6.03;;;2.75;;
46230;SDS011;31949;51.404;-0.038;2024-02-16T08:18:18;5.30;;;2.85;;
46230;SDS011;31949;51.404;-0.038;2024-02-16T08:20:46;4.93;;;2.95;;
46230;SDS011;31949;51.404;-0.038;2024-02-16T08:23:14;5.38;;;2.85;;
46230;SDS011;31949;51.404;-0.038;2024-02-16T08:25:41;5.78;;;3.33;;
46230;SDS011;31949;51.404;-0.038;2024-02-16T08:28:08;5.03;;;3.65;;
46230;SDS011;31949;51.404;-0.038;2024-02-16T08:30:35;6.82;;;3.15;;
46230;SDS011;31949;51.404;-0.038;2024-02-16T08:33:07;7.55;;;3.70;;
46230;SDS011;31949;51.404;-0.038;2024-02-16T08:35:42;11.60;;;3.50;;
46230;SDS011;31949;51.404;-0.038;2024-02-16T08:38:09;6.30;;;3.90;;
46230;SDS011;31949;51.404;-0.038;2024-02-16T08:40:37;7.10;;;4.35;;
46230;SDS011;31949;51.404;-0.038;2024-02-16T08:43:05;7.38;;;3.67;;
46230;SDS011;31949;51.404;-0.038;2024-02-16T08:45:34;7.22;;;3.65;;
46230;SDS011;31949;51.404;-0.038;2024-02-16T08:48:01;14.20;;;4.55;;
46230;SDS011;31949;51.404;-0.038;2024-02-16T08:50:31;8.73;;;4.00;;
46230;SDS011;31949;51.404;-0.038;2024-02-16T08:52:58;12.38;;;4.40;;
46230;SDS011;31949;51.404;-0.038;2024-02-16T08:55:25;10.30;;;4.55;;
46230;SDS011;31949;51.404;-0.038;2024-02-16T08:57:53;13.07;;;6.10;;
46230;SDS011;31949;51.404;-0.038;2024-02-16T09:00:20;9.95;;;4.90;;
46230;SDS011;31949;51.404;-0.038;2024-02-16T09:02:47;11.68;;;5.43;;
46230;SDS011;31949;51.404;-0.038;2024-02-16T09:05:14;11.60;;;4.45;;
46230;SDS011;31949;51.404;-0.038;2024-02-16T09:07:42;10.10;;;5.60;;
46230;SDS011;31949;51.404;-0.038;2024-02-16T09:10:09;15.55;;;5.20;;
46230;SDS011;31949;51.404;-0.038;2024-02-16T09:12:36;9.73;;;5.20;;
46230;SDS011;31949;51.404;-0.038;2024-02-16T09:15:04;9.50;;;4.45;;
46230;SDS011;31949;51.404;-0.038;2024-02-16T09:17:32;8.43;;;4.60;;
46230;SDS011;31949;51.404;-0.038;2024-02-16T09:19:59;10.70;;;4.55;;
46230;SDS011;31949;51.404;-0.038;2024-02-16T09:22:27;14.38;;;5.35;;
46230;SDS011;31949;51.404;-0.038;2024-02-16T09:24:57;10.73;;;4.20;;
46230;SDS011;31949;51.404;-0.038;2024-02-16T09:27:26;14.05;;;5.43;;
46230;SDS011;31949;51.404;-0.038;2024-02-16T09:29:55;10.68;;;4.20;;
46230;SDS011;31949;51.404;-0.038;2024-02-16T09:32:22;12.38;;;4.63;;
46230;SDS011;31949;51.404;-0.038;2024-02-16T09:34:50;14.00;;;5.00;;
46230;SDS011;31949;51.404;-0.038;2024-02-16T09:37:18;7.55;;;4.00;;
46230;SDS011;31949;51.404;-0.038;2024-02-16T09:39:45;7.05;;;4.43;;
46230;SDS011;31949;51.404;-0.038;2024-02-16T09:42:12;9.70;;;4.70;;
46230;SDS011;31949;51.404;-0.038;2024-02-16T09:44:41;8.48;;;5.35;;
46230;SDS011;31949;51.404;-0.038;2024-02-16T09:47:10;10.50;;;4.68;;
46230;SDS011;31949;51.404;-0.038;2024-02-16T09:49:40;11.10;;;4.82;;
46230;SDS011;31949;51.404;-0.038;2024-02-16T09:52:09;12.73;;;5.57;;
46230;SDS011;31949;51.404;-0.038;2024-02-16T09:54:38;11.77;;;4.80;;
46230;SDS011;31949;51.404;-0.038;2024-02-16T09:57:06;11.23;;;4.93;;
46230;SDS011;31949;51.404;-0.038;2024-02-16T09:59:34;12.25;;;4.95;;
46230;SDS011;31949;51.404;-0.038;2024-02-16T10:02:02;12.35;;;4.85;;
46230;SDS011;31949;51.404;-0.038;2024-02-16T10:04:30;9.55;;;4.63;;
46230;SDS011;31949;51.404;-0.038;2024-02-16T10:07:02;12.90;;;5.45;;
46230;SDS011;31949;51.404;-0.038;2024-02-16T10:09:39;11.27;;;4.25;;
46230;SDS011;31949;51.404;-0.038;2024-02-16T10:12:08;13.38;;;4.13;;
46230;SDS011;31949;51.404;-0.038;2024-02-16T10:14:36;12.38;;;4.75;;
46230;SDS011;31949;51.404;-0.038;2024-02-16T10:17:05;11.93;;;3.97;;
46230;SDS011;31949;51.404;-0.038;2024-02-16T10:19:34;8.75;;;4.38;;
46230;SDS011;31949;51.404;-0.038;2024-02-16T10:22:12;13.98;;;4.13;;
46230;SDS011;31949;51.404;-0.038;2024-02-16T10:24:40;10.65;;;3.90;;
46230;SDS011;31949;51.404;-0.038;2024-02-16T10:27:16;7.03;;;3.70;;
46230;SDS011;31949;51.404;-0.038;2024-02-16T10:29:48;12.48;;;4.50;;
46230;SDS011;31949;51.404;-0.038;2024-02-16T10:32:18;10.13;;;4.15;;
46230;SDS011;31949;51.404;-0.038;2024-02-16T10:34:46;9.73;;;3.60;;
46230;SDS011;31949;51.404;-0.038;2024-02-16T10:37:16;4.78;;;3.92;;
46230;SDS011;31949;51.404;-0.038;2024-02-16T10:39:44;10.20;;;3.45;;
46230;SDS011;31949;51.404;-0.038;2024-02-16T10:42:13;8.02;;;3.90;;
46230;SDS011;31949;51.404;-0.038;2024-02-16T10:44:42;8.52;;;3.92;;
46230;SDS011;31949;51.404;-0.038;2024-02-16T10:47:11;12.90;;;4.25;;
46230;SDS011;31949;51.404;-0.038;2024-02-16T10:49:38;13.50;;;3.95;;
46230;SDS011;31949;51.404;-0.038;2024-02-16T10:52:06;7.85;;;2.90;;
46230;SDS011;31949;51.404;-0.038;2024-02-16T10:54:34;10.27;;;3.70;;
46230;SDS011;31949;51.404;-0.038;2024-02-16T10:57:07;7.60;;;3.17;;
46230;SDS011;31949;51.404;-0.038;2024-02-16T10:59:42;9.68;;;2.97;;
46230;SDS011;31949;51.404;-0.038;2024-02-16T11:02:11;6.97;;;3.17;;
46230;SDS011;31949;51.404;-0.038;2024-02-16T11:04:38;6.22;;;3.35;;
46230;SDS011;31949;51.404;-0.038;2024-02-16T11:07:10;15.40;;;3.83;;
46230;SDS011;31949;51.404;-0.038;2024-02-16T11:12:07;6.15;;;2.45;;
46230;SDS011;31949;51.404;-0.038;2024-02-16T11:14:38;7.30;;;2.45;;
46230;SDS011;31949;51.404;-0.038;2024-02-16T11:17:10;7.90;;;3.05;;
46230;SDS011;31949;51.404;-0.038;2024-02-16T11:19:42;8.27;;;2.65;;
46230;SDS011;31949;51.404;-0.038;2024-02-16T11:22:17;3.97;;;2.30;;
46230;SDS011;31949;51.404;-0.038;2024-02-16T11:24:46;11.30;;;3.38;;
46230;SDS011;31949;51.404;-0.038;2024-02-16T11:27:15;5.35;;;2.30;;
46230;SDS011;31949;51.404;-0.038;2024-02-16T11:29:47;7.55;;;3.30;;
46230;SDS011;31949;51.404;-0.038;2024-02-16T11:32:16;12.23;;;3.10;;
46230;SDS011;31949;51.404;-0.038;2024-02-16T11:34:46;4.47;;;2.30;;
46230;SDS011;31949;51.404;-0.038;2024-02-16T11:37:14;8.75;;;2.92;;
46230;SDS011;31949;51.404;-0.038;2024-02-16T11:39:43;6.95;;;3.13;;
46230;SDS011;31949;51.404;-0.038;2024-02-16T11:42:13;3.63;;;2.45;;
46230;SDS011;31949;51.404;-0.038;2024-02-16T11:44:52;7.32;;;3.03;;
46230;SDS011;31949;51.404;-0.038;2024-02-16T11:47:22;6.60;;;2.90;;
46230;SDS011;31949;51.404;-0.038;2024-02-16T11:50:08;9.68;;;4.18;;
46230;SDS011;31949;51.404;-0.038;2024-02-16T11:52:40;3.85;;;2.33;;
46230;SDS011;31949;51.404;-0.038;2024-02-16T11:55:08;8.32;;;2.92;;
46230;SDS011;31949;51.404;-0.038;2024-02-16T11:57:38;4.53;;;2.45;;
46230;SDS011;31949;51.404;-0.038;2024-02-16T12:00:07;5.07;;;2.65;;
46230;SDS011;31949;51.404;-0.038;2024-02-16T12:02:37;4.47;;;2.20;;
46230;SDS011;31949;51.404;-0.038;2024-02-16T12:05:05;4.93;;;2.35;;
46230;SDS011;31949;51.404;-0.038;2024-02-16T12:07:33;4.70;;;2.70;;
46230;SDS011;31949;51.404;-0.038;2024-02-16T12:10:05;3.05;;;1.77;;
46230;SDS011;31949;51.404;-0.038;2024-02-16T12:12:33;5.60;;;1.88;;
46230;SDS011;31949;51.404;-0.038;2024-02-16T12:15:01;3.20;;;1.92;;
46230;SDS011;31949;51.404;-0.038;2024-02-16T12:17:31;4.80;;;2.28;;
46230;SDS011;31949;51.404;-0.038;2024-02-16T12:19:59;4.90;;;1.85;;
46230;SDS011;31949;51.404;-0.038;2024-02-16T12:22:27;3.40;;;1.83;;
46230;SDS011;31949;51.404;-0.038;2024-02-16T12:24:54;6.25;;;2.55;;
46230;SDS011;31949;51.404;-0.038;2024-02-16T12:27:21;4.35;;;1.70;;
46230;SDS011;31949;51.404;-0.038;2024-02-16T12:29:48;3.25;;;1.77;;
46230;SDS011;31949;51.404;-0.038;2024-02-16T12:32:16;3.55;;;1.65;;
46230;SDS011;31949;51.404;-0.038;2024-02-16T12:34:46;3.05;;;1.70;;
46230;SDS011;31949;51.404;-0.038;2024-02-16T12:37:14;3.30;;;1.52;;
46230;SDS011;31949;51.404;-0.038;2024-02-16T12:39:41;1.60;;;1.33;;
46230;SDS011;31949;51.404;-0.038;2024-02-16T12:42:09;6.07;;;1.52;;
46230;SDS011;31949;51.404;-0.038;2024-02-16T12:44:36;2.83;;;1.63;;
46230;SDS011;31949;51.404;-0.038;2024-02-16T12:47:03;3.70;;;1.60;;
46230;SDS011;31949;51.404;-0.038;2024-02-16T12:49:31;3.20;;;1.45;;
46230;SDS011;31949;51.404;-0.038;2024-02-16T12:51:58;5.93;;;1.85;;
46230;SDS011;31949;51.404;-0.038;2024-02-16T12:54:25;5.63;;;2.47;;
46230;SDS011;31949;51.404;-0.038;2024-02-16T12:56:53;3.75;;;1.85;;
46230;SDS011;31949;51.404;-0.038;2024-02-16T12:59:21;4.97;;;2.17;;
46230;SDS011;31949;51.404;-0.038;2024-02-16T13:01:48;3.38;;;1.20;;
46230;SDS011;31949;51.404;-0.038;2024-02-16T13:04:17;2.08;;;1.20;;
46230;SDS011;31949;51.404;-0.038;2024-02-16T13:06:48;4.07;;;1.87;;
46230;SDS011;31949;51.404;-0.038;2024-02-16T13:09:17;2.35;;;1.80;;
46230;SDS011;31949;51.404;-0.038;2024-02-16T13:11:44;1.30;;;1.08;;
46230;SDS011;31949;51.404;-0.038;2024-02-16T13:14:12;3.83;;;1.42;;
46230;SDS011;31949;51.404;-0.038;2024-02-16T13:16:39;3.97;;;1.58;;
46230;SDS011;31949;51.404;-0.038;2024-02-16T13:19:06;3.35;;;1.30;;
46230;SDS011;31949;51.404;-0.038;2024-02-16T13:21:34;4.90;;;1.98;;
46230;SDS011;31949;51.404;-0.038;2024-02-16T13:24:01;6.40;;;1.95;;
46230;SDS011;31949;51.404;-0.038;2024-02-16T13:26:29;3.35;;;1.27;;
46230;SDS011;31949;51.404;-0.038;2024-02-16T13:28:57;3.40;;;2.38;;
46230;SDS011;31949;51.404;-0.038;2024-02-16T13:31:24;3.78;;;1.67;;
46230;SDS011;31949;51.404;-0.038;2024-02-16T13:33:53;1.70;;;1.15;;
46230;SDS011;31949;51.404;-0.038;2024-02-16T13:36:21;2.85;;;1.80;;
46230;SDS011;31949;51.404;-0.038;2024-02-16T13:38:48;3.50;;;2.10;;
46230;SDS011;31949;51.404;-0.038;2024-02-16T13:41:16;4.90;;;1.77;;
46230;SDS011;31949;51.404;-0.038;2024-02-16T13:43:46;4.07;;;2.35;;
46230;SDS011;31949;51.404;-0.038;2024-02-16T13:46:14;3.30;;;2.00;;
46230;SDS011;31949;51.404;-0.038;2024-02-16T13:48:41;4.93;;;2.10;;
46230;SDS011;31949;51.404;-0.038;2024-02-16T13:51:09;6.13;;;2.13;;
46230;SDS011;31949;51.404;-0.038;2024-02-16T13:53:37;5.05;;;2.63;;
46230;SDS011;31949;51.404;-0.038;2024-02-16T13:56:04;2.92;;;1.42;;
46230;SDS011;31949;51.404;-0.038;2024-02-16T13:58:33;3.83;;;1.80;;
46230;SDS011;31949;51.404;-0.038;2024-02-16T14:01:01;2.38;;;1.35;;
46230;SDS011;31949;51.404;-0.038;2024-02-16T14:03:30;4.55;;;2.33;;
46230;SDS011;31949;51.404;-0.038;2024-02-16T14:05:59;4.97;;;2.00;;
46230;SDS011;31949;51.404;-0.038;2024-02-16T14:08:27;4.32;;;1.88;;
46230;SDS011;31949;51.404;-0.038;2024-02-16T14:10:54;3.42;;;1.30;;
46230;SDS011;31949;51.404;-0.038;2024-02-16T14:13:22;2.00;;;1.52;;
46230;SDS011;31949;51.404;-0.038;2024-02-16T14:15:51;2.75;;;1.30;;
46230;SDS011;31949;51.404;-0.038;2024-02-16T14:18:19;5.38;;;1.80;;
46230;SDS011;31949;51.404;-0.038;2024-02-16T14:21:00;5.38;;;1.52;;
46230;SDS011;31949;51.404;-0.038;2024-02-16T14:23:31;3.88;;;1.33;;
46230;SDS011;31949;51.404;-0.038;2024-02-16T14:25:59;6.13;;;1.98;;
46230;SDS011;31949;51.404;-0.038;2024-02-16T14:28:26;6.20;;;1.52;;
46230;SDS011;31949;51.404;-0.038;2024-02-16T14:30:54;3.67;;;1.50;;
46230;SDS011;31949;51.404;-0.038;2024-02-16T14:33:21;2.45;;;0.90;;
46230;SDS011;31949;51.404;-0.038;2024-02-16T14:36:00;2.63;;;1.00;;
46230;SDS011;31949;51.404;-0.038;2024-02-16T14:38:28;3.95;;;1.20;;
46230;SDS011;31949;51.404;-0.038;2024-02-16T14:40:56;3.17;;;1.20;;